Time;durP1;ratioP1;P1;durP2;ratioP2;P2;SDS_P1;SDS_P2;PMS_P1;PMS_P2;Temp;Humidity;BMP_temperature;BMP_pressure;BME280_temperature;BME280_humidity;BME280_pressure;Samples;Min_cycle;Max_cycle;Signal;HPM_P1;HPM_P2
2023/09/14 00:00:49;;;;;;;0.45;0.30;;;;;;;14.22;91.50;101411.50;4988086;28;20058;-65
2023/09/14 00:03:15;;;;;;;0.98;0.65;;;;;;;14.21;91.51;101409.91;4988592;28;20027;-66
2023/09/14 00:05:44;;;;;;;1.20;0.47;;;;;;;14.23;91.52;101408.41;4990080;28;20607;-65
2023/09/14 00:08:11;;;;;;;0.38;0.35;;;;;;;14.21;91.44;101409.91;4989635;28;20073;-64
2023/09/14 00:10:37;;;;;;;2.05;0.40;;;;;;;14.25;91.58;101413.47;4982795;28;20034;-65
2023/09/14 00:13:03;;;;;;;0.80;0.50;;;;;;;14.20;91.40;101406.44;4987917;28;20113;-64
2023/09/14 00:15:29;;;;;;;0.45;0.25;;;;;;;14.19;91.36;101401.38;4989339;28;20042;-64
2023/09/14 00:17:55;;;;;;;0.60;0.40;;;;;;;14.15;92.13;101406.72;4984007;28;20510;-64
2023/09/14 00:20:23;;;;;;;1.48;0.47;;;;;;;14.08;91.93;101400.41;4988376;28;20034;-65
2023/09/14 00:22:53;;;;;;;0.30;0.30;;;;;;;14.09;92.26;101408.16;4988777;28;20097;-64
2023/09/14 00:25:20;;;;;;;1.98;0.45;;;;;;;14.11;91.53;101403.16;4988086;28;20454;-65
2023/09/14 00:27:47;;;;;;;1.05;0.38;;;;;;;14.00;92.06;101413.03;4993112;28;20033;-65
2023/09/14 00:30:13;;;;;;;0.45;0.35;;;;;;;13.98;92.39;101414.53;4991543;28;20407;-64
2023/09/14 00:32:42;;;;;;;0.45;0.43;;;;;;;13.98;92.23;101419.94;4990770;28;20442;-65
2023/09/14 00:35:09;;;;;;;0.80;0.40;;;;;;;13.94;92.51;101419.09;4987669;28;20243;-64
2023/09/14 00:37:36;;;;;;;1.23;0.40;;;;;;;13.91;92.15;101419.81;4987692;28;20038;-64
2023/09/14 00:40:06;;;;;;;1.13;0.43;;;;;;;13.90;92.07;101413.59;4987718;28;20543;-65
2023/09/14 00:42:39;;;;;;;1.92;0.47;;;;;;;13.85;92.48;101419.31;4992455;28;20042;-64
2023/09/14 00:45:06;;;;;;;0.50;0.30;;;;;;;13.89;92.26;101414.75;4985913;28;20041;-64
2023/09/14 00:47:32;;;;;;;0.77;0.55;;;;;;;13.86;92.20;101414.69;4983191;28;20026;-65
2023/09/14 00:49:58;;;;;;;2.13;0.70;;;;;;;13.83;91.83;101415.41;4982649;28;20476;-64
2023/09/14 00:52:24;;;;;;;0.50;0.40;;;;;;;13.84;92.09;101427.81;4987646;28;20030;-64
2023/09/14 00:54:50;;;;;;;0.70;0.47;;;;;;;13.81;92.43;101434.72;4989491;28;20041;-64
2023/09/14 00:57:17;;;;;;;1.30;0.65;;;;;;;13.88;92.13;101434.84;4989313;28;20053;-64
2023/09/14 00:59:44;;;;;;;1.75;0.52;;;;;;;13.83;91.98;101432.44;4984144;28;20165;-65
2023/09/14 01:02:10;;;;;;;0.55;0.43;;;;;;;13.87;92.06;101430.59;4991736;28;20038;-64
2023/09/14 01:04:36;;;;;;;1.75;0.45;;;;;;;13.84;92.25;101425.09;4989605;28;20061;-64
2023/09/14 01:07:01;;;;;;;1.27;0.80;;;;;;;13.79;91.91;101431.59;4985552;28;20062;-65
2023/09/14 01:09:27;;;;;;;0.52;0.47;;;;;;;13.79;91.96;101428.88;4985175;28;20475;-64
2023/09/14 01:11:53;;;;;;;0.32;0.32;;;;;;;13.71;91.69;101424.47;4987579;28;20041;-64
2023/09/14 01:14:34;;;;;;;1.92;0.40;;;;;;;13.66;91.96;101419.34;4989827;28;20101;-64
2023/09/14 01:17:11;;;;;;;0.20;0.20;;;;;;;13.65;91.73;101422.38;4982857;28;20042;-64
2023/09/14 01:19:55;;;;;;;1.30;0.40;;;;;;;13.61;92.26;101424.25;4986715;28;20517;-65
2023/09/14 01:22:36;;;;;;;0.40;0.40;;;;;;;13.58;92.01;101425.75;5002743;28;20031;-64
2023/09/14 01:25:15;;;;;;;1.65;0.30;;;;;;;13.56;92.05;101428.81;4984193;28;20046;-65
2023/09/14 01:27:41;;;;;;;1.95;0.80;;;;;;;13.52;92.18;101427.16;5002515;28;20030;-65
2023/09/14 01:30:07;;;;;;;0.70;0.40;;;;;;;13.51;92.65;101426.38;4983980;28;20399;-64
2023/09/14 01:32:32;;;;;;;0.82;0.63;;;;;;;13.54;92.05;101422.19;4987649;28;20491;-65
2023/09/14 01:34:58;;;;;;;0.55;0.35;;;;;;;13.50;92.22;101435.63;4985735;28;20126;-64
2023/09/14 01:37:25;;;;;;;0.50;0.38;;;;;;;13.48;92.03;101439.81;4980900;28;20486;-65
2023/09/14 01:39:53;;;;;;;0.65;0.50;;;;;;;13.42;92.01;101442.03;4985815;28;20361;-64
2023/09/14 01:42:21;;;;;;;1.95;0.60;;;;;;;13.38;92.51;101437.69;4986229;28;20034;-64
2023/09/14 01:44:48;;;;;;;0.10;0.10;;;;;;;13.38;92.74;101440.38;4986124;28;20088;-64
2023/09/14 01:47:14;;;;;;;0.43;0.30;;;;;;;13.36;92.50;101437.25;4990256;28;20041;-64
2023/09/14 01:49:39;;;;;;;0.55;0.45;;;;;;;13.35;92.34;101427.56;4988027;28;20027;-65
2023/09/14 01:52:05;;;;;;;0.30;0.30;;;;;;;13.41;92.15;101431.56;4991287;28;20506;-65
2023/09/14 01:54:51;;;;;;;1.20;0.50;;;;;;;13.36;92.29;101434.53;4985051;28;20043;-64
2023/09/14 01:57:16;;;;;;;1.25;0.68;;;;;;;13.34;92.54;101440.31;4946779;28;20050;-64
2023/09/14 01:59:42;;;;;;;0.30;0.30;;;;;;;13.32;92.67;101431.75;4949981;28;20566;-64
2023/09/14 02:02:08;;;;;;;0.30;0.25;;;;;;;13.31;92.30;101432.91;4936312;28;20055;-63
2023/09/14 02:04:34;;;;;;;1.27;0.52;;;;;;;13.29;92.49;101428.97;4944031;28;20042;-64
2023/09/14 02:06:59;;;;;;;0.20;0.20;;;;;;;13.25;92.48;101437.03;4948986;28;20027;-64
2023/09/14 02:09:25;;;;;;;0.90;0.55;;;;;;;13.22;92.52;101434.25;4966703;28;20101;-63
2023/09/14 02:11:50;;;;;;;1.25;0.35;;;;;;;13.13;93.02;101426.31;4958521;28;20073;-64
2023/09/14 02:14:16;;;;;;;0.45;0.30;;;;;;;13.17;93.25;101426.38;4963123;28;20538;-64
2023/09/14 02:16:41;;;;;;;3.35;0.43;;;;;;;13.07;92.33;101429.63;4946860;28;20054;-64
2023/09/14 02:19:07;;;;;;;1.98;0.47;;;;;;;13.05;93.34;101435.41;4943056;28;20027;-64
2023/09/14 02:21:33;;;;;;;0.15;0.15;;;;;;;13.12;93.25;101437.50;4946083;28;20142;-64
2023/09/14 02:23:58;;;;;;;0.57;0.20;;;;;;;13.07;92.88;101422.31;4946709;28;20031;-64
2023/09/14 02:26:23;;;;;;;1.67;0.57;;;;;;;13.17;93.03;101429.88;4947163;28;20039;-64
2023/09/14 02:28:49;;;;;;;0.70;0.60;;;;;;;13.12;92.51;101423.97;4935902;28;20470;-65
2023/09/14 02:31:19;;;;;;;0.85;0.75;;;;;;;13.01;92.69;101422.91;4959292;28;20042;-65
2023/09/14 02:33:45;;;;;;;0.77;0.20;;;;;;;13.03;93.24;101434.16;4950736;28;20091;-65
2023/09/14 02:36:10;;;;;;;4.07;0.73;;;;;;;13.13;92.89;101430.94;4984001;28;20313;-65
2023/09/14 02:38:36;;;;;;;0.38;0.38;;;;;;;13.10;92.49;101432.44;4977352;28;20039;-65
2023/09/14 02:41:01;;;;;;;0.20;0.15;;;;;;;13.03;92.64;101437.66;4983793;28;20038;-65
2023/09/14 02:43:27;;;;;;;2.50;0.57;;;;;;;12.99;92.32;101431.38;4986567;28;20026;-65
2023/09/14 02:45:52;;;;;;;2.72;0.22;;;;;;;12.98;92.70;101437.91;4984204;28;20500;-66
2023/09/14 02:48:17;;;;;;;0.10;0.10;;;;;;;12.95;92.49;101435.91;4966276;28;20035;-65
2023/09/14 02:50:43;;;;;;;0.28;0.20;;;;;;;12.87;93.07;101434.19;4987882;28;20027;-65
2023/09/14 02:53:09;;;;;;;0.20;0.15;;;;;;;12.81;93.28;101438.28;4979047;28;20073;-65
2023/09/14 02:55:37;;;;;;;1.40;0.40;;;;;;;12.90;93.34;101440.78;4983498;28;20368;-65
2023/09/14 02:58:07;;;;;;;2.22;0.57;;;;;;;12.83;92.94;101443.34;4986152;28;20026;-65
2023/09/14 03:00:33;;;;;;;0.55;0.30;;;;;;;12.86;93.09;101448.03;4987588;28;20034;-64
2023/09/14 03:02:59;;;;;;;0.77;0.60;;;;;;;12.86;92.37;101448.84;4984806;28;20037;-64
2023/09/14 03:05:24;;;;;;;1.08;0.52;;;;;;;12.84;93.14;101451.09;4983125;28;20026;-65
2023/09/14 03:07:50;;;;;;;0.50;0.28;;;;;;;12.84;93.01;101448.41;4990656;28;20407;-64
2023/09/14 03:10:16;;;;;;;0.30;0.30;;;;;;;12.83;92.90;101449.53;4987652;28;20646;-64
2023/09/14 03:12:41;;;;;;;0.40;0.40;;;;;;;12.87;92.86;101455.03;4983577;28;20035;-65
2023/09/14 03:15:07;;;;;;;0.95;0.60;;;;;;;12.87;92.23;101445.00;4985368;28;20157;-65
2023/09/14 03:17:32;;;;;;;1.40;0.47;;;;;;;12.80;92.29;101446.72;4984061;28;20185;-65
2023/09/14 03:19:58;;;;;;;1.23;0.55;;;;;;;12.76;92.48;101453.97;4987194;28;20037;-64
2023/09/14 03:22:24;;;;;;;0.40;0.32;;;;;;;12.73;93.06;101454.69;4982007;28;20068;-65
2023/09/14 03:24:50;;;;;;;1.52;0.25;;;;;;;12.73;92.67;101454.69;4983667;28;20419;-65
2023/09/14 03:27:15;;;;;;;1.00;0.60;;;;;;;12.81;92.96;101472.63;4988499;28;20197;-65
2023/09/14 03:29:41;;;;;;;0.85;0.60;;;;;;;12.66;92.81;101472.28;4985392;28;20053;-65
2023/09/14 03:32:07;;;;;;;0.82;0.40;;;;;;;12.68;92.80;101471.94;4989533;28;20034;-64
2023/09/14 03:34:32;;;;;;;1.77;0.75;;;;;;;12.68;92.54;101467.31;4975694;28;20125;-64
2023/09/14 03:36:57;;;;;;;1.55;0.98;;;;;;;12.66;92.23;101463.38;4992969;28;20033;-64
2023/09/14 03:39:24;;;;;;;0.50;0.38;;;;;;;12.64;92.56;101463.75;4990551;28;20034;-64
2023/09/14 03:41:49;;;;;;;0.65;0.60;;;;;;;12.60;91.95;101470.97;4980687;28;20098;-64
2023/09/14 03:44:16;;;;;;;0.60;0.50;;;;;;;12.45;92.53;101469.03;4990776;28;20034;-64
2023/09/14 03:46:41;;;;;;;0.43;0.43;;;;;;;12.43;93.04;101473.22;4993994;28;20042;-64
2023/09/14 03:49:07;;;;;;;0.40;0.40;;;;;;;12.42;93.88;101472.44;4982208;28;20050;-64
2023/09/14 03:51:33;;;;;;;1.55;0.20;;;;;;;12.40;92.61;101469.31;4987266;28;20042;-64
2023/09/14 03:53:59;;;;;;;0.40;0.40;;;;;;;12.32;93.05;101469.47;4991848;28;20046;-64
2023/09/14 03:56:24;;;;;;;0.55;0.55;;;;;;;12.34;92.74;101476.09;4987364;28;20457;-64
2023/09/14 03:58:50;;;;;;;0.52;0.38;;;;;;;12.30;93.23;101471.72;4993765;28;20541;-64
2023/09/14 04:01:16;;;;;;;0.68;0.40;;;;;;;12.26;93.49;101479.72;4986863;28;20157;-64
2023/09/14 04:03:41;;;;;;;0.30;0.30;;;;;;;12.28;93.60;101476.69;4974113;28;20475;-64
2023/09/14 04:06:07;;;;;;;0.77;0.30;;;;;;;12.21;92.81;101477.28;4989545;28;20038;-64
2023/09/14 04:08:32;;;;;;;0.32;0.32;;;;;;;12.23;92.98;101483.09;4974914;28;20069;-64
2023/09/14 04:11:00;;;;;;;2.42;0.25;;;;;;;12.33;92.90;101489.94;4988788;28;20384;-66
2023/09/14 04:13:32;;;;;;;1.63;0.50;;;;;;;12.38;92.49;101476.19;4986167;28;20110;-66
2023/09/14 04:16:03;;;;;;;1.50;0.40;;;;;;;12.42;92.26;101487.88;4990032;28;20065;-66
2023/09/14 04:18:34;;;;;;;1.80;0.68;;;;;;;12.47;91.75;101491.09;4990301;28;20052;-66
2023/09/14 04:21:20;;;;;;;0.90;0.70;;;;;;;12.47;91.80;101485.69;4986239;28;20030;-66
2023/09/14 04:23:46;;;;;;;0.35;0.35;;;;;;;12.41;91.78;101472.78;4950868;28;20070;-66
2023/09/14 04:26:13;;;;;;;0.43;0.40;;;;;;;12.32;92.13;101474.84;4950500;28;20043;-65
2023/09/14 04:28:38;;;;;;;0.35;0.35;;;;;;;12.26;92.25;101468.94;4947781;28;20479;-66
2023/09/14 04:31:08;;;;;;;1.30;0.55;;;;;;;12.25;92.75;101467.34;4961570;28;20649;-65
2023/09/14 04:33:35;;;;;;;3.38;0.70;;;;;;;12.19;92.52;101468.75;4950222;28;20027;-65
2023/09/14 04:36:03;;;;;;;0.65;0.47;;;;;;;12.14;92.47;101468.97;4952107;28;20046;-65
2023/09/14 04:38:29;;;;;;;0.30;0.30;;;;;;;12.11;92.72;101477.78;4960980;28;20811;-65
2023/09/14 04:40:56;;;;;;;1.70;0.75;;;;;;;12.10;93.19;101478.13;4944065;28;20046;-64
2023/09/14 04:43:22;;;;;;;1.77;0.80;;;;;;;12.10;93.28;101478.91;4936039;28;20491;-65
2023/09/14 04:45:47;;;;;;;0.68;0.60;;;;;;;12.08;93.47;101485.78;4951032;28;20695;-65
2023/09/14 04:48:13;;;;;;;1.83;0.60;;;;;;;12.07;92.86;101481.50;4963852;28;20503;-65
2023/09/14 04:50:41;;;;;;;0.85;0.50;;;;;;;11.85;93.64;101485.50;4950812;28;20022;-65
2023/09/14 04:53:07;;;;;;;0.65;0.60;;;;;;;11.93;93.42;101479.19;4951361;28;20042;-64
2023/09/14 04:55:32;;;;;;;0.60;0.40;;;;;;;11.90;93.11;101471.00;4969711;28;20698;-66
2023/09/14 04:57:58;;;;;;;0.90;0.57;;;;;;;11.80;93.26;101480.38;4939356;28;21225;-64
2023/09/14 05:00:24;;;;;;;1.83;0.80;;;;;;;11.87;94.02;101479.78;4952550;28;20051;-65
2023/09/14 05:02:49;;;;;;;1.15;0.40;;;;;;;11.92;93.33;101479.53;4982929;28;20061;-66
2023/09/14 05:05:14;;;;;;;0.65;0.52;;;;;;;11.92;93.40;101485.72;4970380;28;20026;-64
2023/09/14 05:07:42;;;;;;;0.52;0.50;;;;;;;11.90;93.37;101490.69;4987517;28;20077;-65
2023/09/14 05:10:08;;;;;;;0.73;0.43;;;;;;;11.93;93.07;101491.91;4988158;28;20038;-64
2023/09/14 05:12:34;;;;;;;0.93;0.75;;;;;;;11.92;93.70;101507.31;4989792;28;20387;-66
2023/09/14 05:15:00;;;;;;;0.82;0.50;;;;;;;11.89;93.62;101508.00;4983971;28;20045;-64
2023/09/14 05:17:27;;;;;;;1.92;0.88;;;;;;;11.88;94.09;101505.66;4984414;28;20022;-64
2023/09/14 05:19:52;;;;;;;0.90;0.57;;;;;;;11.79;93.42;101503.06;4989731;28;20121;-64
2023/09/14 05:22:17;;;;;;;1.52;0.60;;;;;;;11.64;94.36;101514.53;4986362;28;20033;-64
2023/09/14 05:24:43;;;;;;;1.35;0.85;;;;;;;11.73;94.49;101521.41;4984102;28;20030;-64
2023/09/14 05:27:09;;;;;;;1.30;0.80;;;;;;;11.88;94.46;101513.75;4988317;28;20088;-65
2023/09/14 05:29:34;;;;;;;2.42;0.93;;;;;;;11.88;94.26;101511.84;4989623;28;20399;-65
2023/09/14 05:32:00;;;;;;;0.68;0.60;;;;;;;11.91;94.75;101515.75;4986116;28;20042;-64
2023/09/14 05:34:26;;;;;;;0.77;0.60;;;;;;;11.95;95.13;101522.03;4981925;28;20379;-64
2023/09/14 05:36:52;;;;;;;1.42;0.68;;;;;;;12.01;95.51;101526.84;4988311;28;20053;-65
2023/09/14 05:39:18;;;;;;;0.93;0.85;;;;;;;12.15;95.27;101521.88;4979325;28;20062;-64
2023/09/14 05:41:45;;;;;;;1.27;0.60;;;;;;;12.31;95.08;101519.22;4989523;28;20418;-65
2023/09/14 05:44:10;;;;;;;1.15;0.60;;;;;;;12.42;95.09;101528.38;4986494;28;20038;-64
2023/09/14 05:46:37;;;;;;;0.82;0.60;;;;;;;12.52;94.78;101525.19;4989974;28;20064;-65
2023/09/14 05:49:03;;;;;;;0.47;0.47;;;;;;;12.58;95.08;101534.63;4984773;28;20038;-65
2023/09/14 05:51:29;;;;;;;0.80;0.50;;;;;;;12.69;94.38;101530.25;4982852;28;20033;-64
2023/09/14 05:53:55;;;;;;;1.48;0.80;;;;;;;12.68;95.33;101543.00;4981280;28;20034;-64
2023/09/14 05:56:21;;;;;;;0.63;0.63;;;;;;;12.69;95.46;101551.88;4989478;28;20026;-65
2023/09/14 05:58:47;;;;;;;1.70;0.77;;;;;;;12.66;95.18;101547.94;4982237;28;20058;-65
2023/09/14 06:01:14;;;;;;;0.98;0.38;;;;;;;12.67;95.21;101551.44;4982693;28;20030;-65
2023/09/14 06:03:40;;;;;;;0.68;0.50;;;;;;;12.70;95.20;101548.03;4986498;28;20031;-65
2023/09/14 06:06:09;;;;;;;1.38;0.65;;;;;;;12.78;95.35;101554.41;4985353;28;20045;-65
2023/09/14 06:08:35;;;;;;;0.55;0.55;;;;;;;12.76;95.31;101551.28;4981454;28;20022;-65
2023/09/14 06:11:01;;;;;;;0.70;0.50;;;;;;;12.80;95.87;101555.66;4984998;28;20053;-65
2023/09/14 06:13:28;;;;;;;3.40;1.20;;;;;;;12.81;96.09;101554.53;4987738;28;20501;-65
2023/09/14 06:15:54;;;;;;;0.40;0.30;;;;;;;12.90;95.57;101555.13;4983840;28;20149;-65
2023/09/14 06:18:19;;;;;;;0.47;0.47;;;;;;;12.95;95.66;101557.56;4989264;28;20121;-65
2023/09/14 06:20:45;;;;;;;2.75;0.57;;;;;;;12.99;95.92;101560.38;4983934;28;20501;-65
2023/09/14 06:23:10;;;;;;;2.75;0.60;;;;;;;13.03;95.62;101556.66;4984055;28;20096;-65
2023/09/14 06:25:36;;;;;;;0.28;0.28;;;;;;;13.09;95.29;101565.28;4985493;28;20070;-65
2023/09/14 06:28:01;;;;;;;0.40;0.40;;;;;;;13.15;96.16;101561.19;4990840;28;20076;-65
2023/09/14 06:30:27;;;;;;;0.95;0.75;;;;;;;13.17;95.59;101573.25;4988483;28;20406;-65
2023/09/14 06:32:52;;;;;;;1.42;0.60;;;;;;;13.23;96.06;101582.66;4980573;28;20465;-65
2023/09/14 06:35:17;;;;;;;3.60;0.57;;;;;;;13.30;95.57;101571.22;4980727;28;20041;-65
2023/09/14 06:38:04;;;;;;;0.65;0.50;;;;;;;13.29;95.02;101567.75;4986747;28;20173;-65
2023/09/14 06:40:30;;;;;;;1.67;0.52;;;;;;;13.47;95.29;101570.88;4960202;28;20055;-65
2023/09/14 06:42:58;;;;;;;1.15;0.75;;;;;;;13.55;95.17;101562.53;4964979;28;20198;-65
2023/09/14 06:45:23;;;;;;;2.47;0.70;;;;;;;13.70;94.86;101558.25;4963563;28;20187;-65
2023/09/14 06:47:49;;;;;;;1.48;0.55;;;;;;;13.95;95.02;101566.91;4965391;28;20117;-65
2023/09/14 06:50:14;;;;;;;0.28;0.20;;;;;;;14.11;94.68;101565.69;4961223;28;20038;-65
2023/09/14 06:52:40;;;;;;;1.15;0.80;;;;;;;14.26;93.47;101569.50;4949525;28;20577;-65
2023/09/14 06:55:06;;;;;;;0.40;0.35;;;;;;;14.45;92.56;101575.72;4947530;28;20559;-65
2023/09/14 06:57:32;;;;;;;2.58;0.40;;;;;;;14.63;91.78;101572.56;4966296;28;20128;-65
2023/09/14 06:59:58;;;;;;;0.32;0.32;;;;;;;14.75;91.85;101572.41;4950540;28;20070;-65
2023/09/14 07:02:23;;;;;;;1.92;0.57;;;;;;;14.89;90.92;101575.34;4965932;28;20051;-66
2023/09/14 07:04:49;;;;;;;1.77;0.50;;;;;;;15.00;90.19;101581.78;4951345;28;20043;-65
2023/09/14 07:07:17;;;;;;;0.98;0.35;;;;;;;15.12;90.42;101587.00;4946393;28;20104;-65
2023/09/14 07:09:43;;;;;;;3.22;0.32;;;;;;;15.18;89.97;101596.41;4937843;28;20560;-65
2023/09/14 07:12:08;;;;;;;1.48;0.50;;;;;;;15.31;89.72;101603.25;4969240;28;20178;-65
2023/09/14 07:14:34;;;;;;;0.70;0.43;;;;;;;15.36;89.05;101600.22;4965954;28;20085;-65
2023/09/14 07:16:59;;;;;;;0.40;0.40;;;;;;;15.43;88.89;101605.00;4961016;28;20403;-65
2023/09/14 07:19:26;;;;;;;0.43;0.40;;;;;;;15.47;88.82;101606.63;4993365;28;20790;-65
2023/09/14 07:21:54;;;;;;;0.38;0.30;;;;;;;15.55;88.03;101611.00;4986413;28;20035;-64
2023/09/14 07:24:20;;;;;;;4.32;0.50;;;;;;;15.78;88.07;101605.53;4989017;28;20027;-65
2023/09/14 07:26:47;;;;;;;0.30;0.30;;;;;;;15.98;87.37;101618.66;4994158;28;20453;-66
2023/09/14 07:29:12;;;;;;;0.70;0.28;;;;;;;16.27;87.12;101623.31;4990760;28;20035;-65
2023/09/14 07:31:39;;;;;;;1.27;0.57;;;;;;;16.47;86.11;101623.16;4987459;28;20124;-66
2023/09/14 07:34:05;;;;;;;1.05;0.30;;;;;;;16.54;84.61;101626.78;4981946;28;20038;-65
2023/09/14 07:36:51;;;;;;;0.35;0.35;;;;;;;16.82;84.43;101631.75;4993152;28;20042;-65
2023/09/14 07:39:16;;;;;;;0.35;0.30;;;;;;;17.10;84.20;101621.16;4968810;28;20558;-66
2023/09/14 07:41:45;;;;;;;0.95;0.43;;;;;;;17.31;82.22;101626.00;4971428;28;20063;-66
2023/09/14 07:44:10;;;;;;;0.90;0.28;;;;;;;17.52;81.03;101629.69;4947662;28;20422;-65
2023/09/14 07:46:37;;;;;;;0.60;0.40;;;;;;;17.63;79.50;101627.06;4971250;28;20038;-66
2023/09/14 07:49:03;;;;;;;0.57;0.32;;;;;;;17.91;78.77;101632.69;4948938;28;20035;-66
2023/09/14 07:51:28;;;;;;;0.38;0.32;;;;;;;18.02;76.84;101642.50;4966356;28;20058;-66
2023/09/14 07:53:55;;;;;;;0.85;0.50;;;;;;;18.35;76.73;101640.75;4949741;29;20035;-66
2023/09/14 07:56:24;;;;;;;0.40;0.40;;;;;;;18.56;75.24;101640.88;4970533;28;20991;-66
2023/09/14 07:58:49;;;;;;;0.80;0.30;;;;;;;18.72;73.44;101638.56;4950470;28;20052;-66
2023/09/14 08:01:15;;;;;;;0.50;0.28;;;;;;;18.81;71.42;101642.47;4963514;28;20028;-65
2023/09/14 08:03:40;;;;;;;0.82;0.45;;;;;;;19.02;70.84;101636.31;4949852;28;20507;-66
2023/09/14 08:06:05;;;;;;;0.20;0.20;;;;;;;19.07;70.66;101638.63;4971023;28;20049;-66
2023/09/14 08:08:33;;;;;;;0.22;0.20;;;;;;;19.18;70.98;101635.94;4947821;28;20416;-65
2023/09/14 08:10:58;;;;;;;0.50;0.32;;;;;;;19.32;69.56;101641.38;4968664;28;20043;-65
2023/09/14 08:13:24;;;;;;;0.40;0.17;;;;;;;19.43;68.75;101648.47;4970207;28;20039;-66
2023/09/14 08:15:49;;;;;;;1.02;0.30;;;;;;;19.51;65.68;101652.00;4964558;28;20752;-66
2023/09/14 08:18:15;;;;;;;0.70;0.38;;;;;;;19.68;65.87;101657.44;4988610;28;20135;-66
2023/09/14 08:20:42;;;;;;;0.52;0.28;;;;;;;19.85;64.55;101660.53;4987214;28;20105;-66
2023/09/14 08:23:09;;;;;;;0.25;0.17;;;;;;;20.09;64.37;101665.19;4984917;28;20108;-64
2023/09/14 08:25:37;;;;;;;1.02;0.30;;;;;;;20.26;63.58;101670.66;4990412;28;20085;-65
2023/09/14 08:28:03;;;;;;;0.20;0.10;;;;;;;;;;4991520;28;20042;-65
2023/09/14 08:30:29;;;;;;;0.50;0.30;;;;;;;20.74;62.24;101676.34;4988741;28;20076;-65
2023/09/14 08:32:54;;;;;;;0.40;0.30;;;;;;;20.95;60.61;101672.69;4988711;28;20113;-65
2023/09/14 08:35:24;;;;;;;0.28;0.10;;;;;;;21.14;59.50;101674.94;4990429;28;20034;-65
2023/09/14 08:37:52;;;;;;;0.10;0.10;;;;;;;21.04;58.52;101676.56;4986356;28;20034;-65
2023/09/14 08:40:18;;;;;;;0.60;0.35;;;;;;;21.23;58.44;101681.56;4991732;28;20027;-66
2023/09/14 08:42:49;;;;;;;0.38;0.20;;;;;;;21.30;58.58;101681.50;4992299;28;20037;-65
2023/09/14 08:45:19;;;;;;;1.58;0.40;;;;;;;21.47;58.10;101682.53;4987149;28;20118;-65
2023/09/14 08:47:49;;;;;;;0.40;0.20;;;;;;;21.60;59.04;101682.84;4987243;28;20778;-66
2023/09/14 08:50:17;;;;;;;1.45;0.22;;;;;;;21.76;59.17;101691.31;4985933;28;20043;-66
2023/09/14 08:52:43;;;;;;;1.17;0.28;;;;;;;21.91;57.31;101684.56;4986942;28;20074;-65
2023/09/14 08:55:10;;;;;;;1.63;0.30;;;;;;;21.45;54.56;101687.66;4990988;28;20042;-65
2023/09/14 08:57:37;;;;;;;1.80;0.30;;;;;;;21.43;56.73;101690.00;4986250;28;20042;-65
2023/09/14 09:00:14;;;;;;;0.52;0.15;;;;;;;21.26;57.08;101691.72;4979263;28;20037;-66
2023/09/14 09:02:42;;;;;;;0.77;0.20;;;;;;;21.54;55.94;101685.25;4990508;28;20410;-65
2023/09/14 09:05:09;;;;;;;0.20;0.10;;;;;;;21.37;57.08;101692.41;4991001;28;20027;-65
2023/09/14 09:07:35;;;;;;;3.20;0.22;;;;;;;21.78;57.21;101684.25;4987809;28;20454;-65
2023/09/14 09:10:03;;;;;;;0.85;0.22;;;;;;;22.14;56.48;101684.72;4990845;28;20066;-66
2023/09/14 09:12:28;;;;;;;1.45;0.10;;;;;;;22.45;54.99;101681.59;4987348;28;20510;-64
2023/09/14 09:14:54;;;;;;;2.35;0.13;;;;;;;22.79;53.88;101687.09;4989159;28;20015;-65
2023/09/14 09:17:19;;;;;;;1.67;0.20;;;;;;;22.82;49.96;101689.00;4986547;28;20121;-66
2023/09/14 09:19:47;;;;;;;0.10;0.08;;;;;;;22.89;51.40;101688.94;4989938;28;20040;-66
2023/09/14 09:22:14;;;;;;;0.38;0.20;;;;;;;23.08;51.29;101684.75;4983352;28;20046;-65
2023/09/14 09:24:40;;;;;;;0.55;0.20;;;;;;;23.39;52.07;101685.47;4981205;28;20121;-66
2023/09/14 09:27:25;;;;;;;0.10;0.10;;;;;;;23.23;49.60;101688.81;4992060;28;20118;-65
2023/09/14 09:29:51;;;;;;;0.90;0.20;;;;;;;23.56;50.83;101681.66;4988177;28;20089;-66
2023/09/14 09:32:22;;;;;;;0.85;0.25;;;;;;;23.75;49.93;101681.72;4987133;28;20798;-65
2023/09/14 09:34:51;;;;;;;2.80;0.10;;;;;;;23.93;48.90;101684.16;4985581;28;20058;-65
2023/09/14 09:37:17;;;;;;;1.92;0.10;;;;;;;23.89;48.01;101680.69;4990090;28;20055;-65
2023/09/14 09:39:44;;;;;;;0.55;0.20;;;;;;;23.91;47.80;101686.56;4989089;28;20042;-65
2023/09/14 09:42:12;;;;;;;0.10;0.10;;;;;;;24.08;48.46;101688.25;4981060;28;20539;-67
2023/09/14 09:44:41;;;;;;;2.40;0.10;;;;;;;24.13;48.10;101682.25;4986140;28;20121;-65
2023/09/14 09:47:12;;;;;;;0.00;0.00;;;;;;;24.20;46.87;101687.63;4991628;28;20033;-66
2023/09/14 09:49:39;;;;;;;1.02;0.10;;;;;;;24.33;45.81;101680.28;4989148;28;20026;-66
2023/09/14 09:52:09;;;;;;;1.05;0.15;;;;;;;24.07;47.70;101686.69;4989312;28;20412;-66
2023/09/14 09:54:35;;;;;;;0.10;0.10;;;;;;;23.89;47.11;101675.19;4982426;28;20129;-66
2023/09/14 09:57:03;;;;;;;0.13;0.10;;;;;;;23.92;48.26;101679.88;4989719;28;20120;-65
2023/09/14 09:59:30;;;;;;;0.22;0.10;;;;;;;24.17;47.75;101683.75;4986584;28;20804;-65
2023/09/14 10:01:58;;;;;;;0.73;0.13;;;;;;;24.42;47.68;101683.25;4981757;28;20035;-66
2023/09/14 10:04:27;;;;;;;0.10;0.10;;;;;;;24.37;47.84;101692.00;4985064;28;20525;-66
2023/09/14 10:06:55;;;;;;;0.68;0.13;;;;;;;24.04;46.83;101687.56;4991453;28;20038;-66
2023/09/14 10:09:22;;;;;;;0.20;0.20;;;;;;;24.21;46.93;101678.19;4989318;28;20108;-66
2023/09/14 10:11:51;;;;;;;1.27;0.30;;;;;;;24.33;46.96;101683.03;4980678;28;20403;-65
2023/09/14 10:14:20;;;;;;;0.55;0.03;;;;;;;24.33;47.57;101687.78;4989073;28;20058;-65
2023/09/14 10:16:50;;;;;;;0.80;0.00;;;;;;;24.25;45.91;101676.13;4991291;28;20083;-66
2023/09/14 10:19:16;;;;;;;0.10;0.10;;;;;;;24.20;46.09;101678.59;4985476;28;20045;-65
2023/09/14 10:21:44;;;;;;;1.52;0.17;;;;;;;24.21;47.76;101683.69;4980292;28;20033;-65
2023/09/14 10:24:11;;;;;;;0.03;0.00;;;;;;;24.21;45.96;101674.63;4987968;28;20082;-64
2023/09/14 10:26:37;;;;;;;0.40;0.15;;;;;;;24.01;47.69;101677.34;4989949;28;20065;-65
2023/09/14 10:29:09;;;;;;;0.30;0.03;;;;;;;23.73;47.08;101677.84;4987751;28;20120;-65
2023/09/14 10:31:35;;;;;;;0.65;0.10;;;;;;;23.52;47.25;101676.22;4980884;28;20054;-65
2023/09/14 10:34:03;;;;;;;0.80;0.20;;;;;;;23.42;48.74;101670.91;4985596;28;20041;-64
2023/09/14 10:36:30;;;;;;;0.28;0.10;;;;;;;23.36;48.02;101672.56;4990688;28;20084;-65
2023/09/14 10:39:01;;;;;;;0.00;0.00;;;;;;;23.36;46.96;101672.56;4990292;28;20487;-65
2023/09/14 10:41:28;;;;;;;1.80;0.32;;;;;;;23.10;46.34;101672.16;4990608;28;20038;-65
2023/09/14 10:43:54;;;;;;;0.55;0.20;;;;;;;23.21;46.67;101672.75;4993445;28;20403;-65
2023/09/14 10:46:24;;;;;;;1.25;0.20;;;;;;;23.13;48.44;101681.53;4993532;28;20041;-64
2023/09/14 10:48:50;;;;;;;2.45;0.38;;;;;;;22.78;49.48;101673.78;5000308;28;20432;-65
2023/09/14 10:51:15;;;;;;;0.20;0.20;;;;;;;22.69;50.51;101674.28;4989231;28;20042;-65
2023/09/14 10:53:42;;;;;;;0.30;0.20;;;;;;;22.44;52.31;101669.06;4982771;28;20053;-65
2023/09/14 10:56:30;;;;;;;0.17;0.10;;;;;;;22.06;49.48;101664.81;4993491;28;20049;-65
2023/09/14 10:58:56;;;;;;;0.00;0.00;;;;;;;22.00;50.36;101671.94;5000346;28;20487;-65
2023/09/14 11:01:27;;;;;;;0.73;0.10;;;;;;;22.01;52.13;101672.72;4986349;28;20714;-65
2023/09/14 11:04:05;;;;;;;0.20;0.20;;;;;;;22.04;51.72;101678.16;4986966;28;20034;-65
2023/09/14 11:07:04;;;;;;;0.80;0.20;;;;;;;22.13;51.20;101670.22;4990995;28;20388;-65
2023/09/14 11:09:29;;;;;;;0.20;0.10;;;;;;;22.28;51.37;101671.59;4970514;28;20054;-66
2023/09/14 11:11:55;;;;;;;0.08;0.03;;;;;;;22.67;50.39;101670.38;4983311;28;20037;-65
2023/09/14 11:14:22;;;;;;;1.50;0.15;;;;;;;23.04;49.62;101662.03;4990239;28;20046;-65
2023/09/14 11:16:52;;;;;;;0.10;0.10;;;;;;;23.28;47.89;101656.16;4988399;28;20038;-66
2023/09/14 11:19:30;;;;;;;0.10;0.10;;;;;;;23.56;48.60;101656.91;4990802;28;20093;-66
2023/09/14 11:22:05;;;;;;;0.10;0.10;;;;;;;23.84;48.46;101651.69;4987882;28;20058;-66
2023/09/14 11:24:34;;;;;;;0.93;0.20;;;;;;;24.02;47.69;101657.66;4987641;28;20030;-66
2023/09/14 11:27:00;;;;;;;0.10;0.10;;;;;;;23.97;46.55;101657.34;4987842;28;20088;-66